Time;durP1;ratioP1;P1;durP2;ratioP2;P2;SDS_P1;SDS_P2;PMS_P1;PMS_P2;Temp;Humidity;BMP_temperature;BMP_pressure;BME280_temperature;BME280_humidity;BME280_pressure;Samples;Min_cycle;Max_cycle;Signal;HPM_P1;HPM_P2
2021/10/13 00:01:42;;;;;;;5.68;3.58;;;1.20;99.90;;;;;;4975610;28;20061;-70
2021/10/13 00:04:08;;;;;;;6.18;3.53;;;1.10;99.90;;;;;;4974629;28;20038;-70
2021/10/13 00:06:33;;;;;;;6.00;3.30;;;1.10;99.90;;;;;;4975779;28;20026;-70
2021/10/13 00:08:59;;;;;;;7.68;3.60;;;1.10;99.90;;;;;;4975432;28;20027;-70
2021/10/13 00:11:24;;;;;;;4.57;2.95;;;1.00;99.90;;;;;;4975956;28;20066;-70
2021/10/13 00:13:50;;;;;;;4.40;2.88;;;1.00;99.90;;;;;;4975379;28;20057;-70
2021/10/13 00:16:15;;;;;;;4.85;3.42;;;1.00;99.90;;;;;;4975336;28;20114;-70
2021/10/13 00:18:41;;;;;;;2.83;2.55;;;0.90;99.90;;;;;;4975186;28;20033;-70
2021/10/13 00:21:06;;;;;;;4.65;3.08;;;0.90;99.90;;;;;;4975504;28;20023;-70
2021/10/13 00:23:32;;;;;;;5.20;3.47;;;0.90;99.90;;;;;;4975214;28;20106;-70
2021/10/13 00:25:58;;;;;;;7.35;3.70;;;0.80;99.90;;;;;;4975199;28;20059;-70
2021/10/13 00:28:23;;;;;;;3.15;2.70;;;0.70;99.90;;;;;;4975351;28;20023;-70
2021/10/13 00:30:49;;;;;;;4.00;3.00;;;0.80;99.90;;;;;;4975140;28;20066;-70
2021/10/13 00:33:14;;;;;;;5.90;4.07;;;0.90;99.90;;;;;;4975063;28;20081;-70
2021/10/13 00:35:40;;;;;;;5.80;3.60;;;1.00;99.90;;;;;;4989968;28;20031;-70
2021/10/13 00:38:05;;;;;;;5.43;4.13;;;1.00;99.90;;;;;;4974815;28;20034;-70
2021/10/13 00:40:31;;;;;;;5.50;3.20;;;1.00;99.90;;;;;;4974989;28;20027;-70
2021/10/13 00:42:57;;;;;;;4.50;3.30;;;1.00;99.90;;;;;;4974947;28;20054;-70
2021/10/13 00:45:23;;;;;;;3.70;2.83;;;1.00;99.90;;;;;;4974911;28;20371;-70
2021/10/13 00:47:48;;;;;;;4.72;3.03;;;1.00;99.90;;;;;;4975030;28;20031;-70
2021/10/13 00:50:14;;;;;;;4.25;3.25;;;0.90;99.90;;;;;;4975077;28;20097;-70
2021/10/13 00:52:42;;;;;;;6.22;3.13;;;0.90;99.90;;;;;;4975124;28;20031;-70
2021/10/13 00:55:19;;;;;;;3.50;3.20;;;0.80;99.90;;;;;;4974732;28;20085;-70
2021/10/13 00:57:46;;;;;;;5.18;3.67;;;0.80;99.90;;;;;;4974705;28;20114;-70
2021/10/13 01:00:12;;;;;;;5.07;3.85;;;0.70;99.90;;;;;;4974941;28;20109;-70
2021/10/13 01:02:52;;;;;;;5.60;4.30;;;0.70;99.90;;;;;;4973305;28;20510;-70
2021/10/13 01:05:26;;;;;;;7.40;4.03;;;0.70;99.90;;;;;;4973371;28;20474;-70
2021/10/13 01:07:51;;;;;;;8.23;4.55;;;0.80;99.90;;;;;;4974724;28;20109;-70
2021/10/13 01:10:39;;;;;;;9.27;5.07;;;0.90;99.90;;;;;;4974522;28;20082;-70
2021/10/13 01:13:40;;;;;;;5.22;4.03;;;1.00;99.90;;;;;;4975057;28;20037;-70
2021/10/13 01:16:13;;;;;;;5.40;3.53;;;1.00;99.90;;;;;;4969950;28;20057;-70
2021/10/13 01:19:08;;;;;;;9.07;4.28;;;1.00;99.90;;;;;;4974227;28;20093;-70
2021/10/13 01:22:03;;;;;;;9.02;4.00;;;1.00;99.90;;;;;;4974995;28;20027;-70
2021/10/13 01:24:45;;;;;;;7.30;3.90;;;1.10;99.90;;;;;;4974805;28;20105;-70
2021/10/13 01:27:32;;;;;;;3.42;2.80;;;1.00;99.90;;;;;;4974677;28;20035;-70
2021/10/13 01:30:01;;;;;;;5.18;3.15;;;1.00;99.90;;;;;;4974303;28;20031;-70
2021/10/13 01:32:28;;;;;;;8.20;3.38;;;0.90;99.90;;;;;;4974291;28;20034;-70
2021/10/13 01:34:58;;;;;;;3.85;3.30;;;0.90;99.90;;;;;;4974307;28;20023;-70
2021/10/13 01:37:46;;;;;;;5.57;3.50;;;0.80;99.90;;;;;;4974410;28;20034;-70
2021/10/13 01:40:15;;;;;;;11.18;5.35;;;0.80;99.90;;;;;;4989072;28;20033;-70
2021/10/13 01:42:50;;;;;;;7.63;3.88;;;0.80;99.90;;;;;;4974225;28;20098;-70
2021/10/13 01:45:17;;;;;;;6.53;3.65;;;0.90;99.90;;;;;;4974641;28;20105;-70
2021/10/13 01:47:46;;;;;;;5.22;3.92;;;0.90;99.90;;;;;;4974127;28;20113;-70
2021/10/13 01:50:12;;;;;;;8.70;4.05;;;0.80;99.90;;;;;;4973222;28;20026;-70
2021/10/13 01:52:39;;;;;;;6.38;3.85;;;0.80;99.90;;;;;;4989067;28;20031;-70
2021/10/13 01:55:06;;;;;;;6.40;3.97;;;0.80;99.90;;;;;;4974118;28;20110;-70
2021/10/13 01:57:33;;;;;;;8.57;3.65;;;0.80;99.90;;;;;;4973852;28;20044;-70
2021/10/13 02:00:04;;;;;;;7.20;4.22;;;0.80;99.90;;;;;;4974067;28;20035;-70
2021/10/13 02:02:32;;;;;;;7.78;3.97;;;0.80;99.90;;;;;;4974362;28;20058;-70
2021/10/13 02:04:59;;;;;;;7.43;4.18;;;0.90;99.90;;;;;;4974263;28;20474;-70
2021/10/13 02:07:26;;;;;;;8.95;4.05;;;0.90;99.90;;;;;;4973916;28;20034;-70
2021/10/13 02:09:55;;;;;;;7.25;3.47;;;0.90;99.90;;;;;;4973978;28;20396;-70
2021/10/13 02:12:23;;;;;;;3.55;2.67;;;0.90;99.90;;;;;;4974201;28;20023;-70
2021/10/13 02:14:52;;;;;;;6.13;3.20;;;0.80;99.90;;;;;;4974190;28;20085;-70
2021/10/13 02:17:19;;;;;;;6.50;3.90;;;0.90;99.90;;;;;;4973860;28;20027;-70
2021/10/13 02:19:47;;;;;;;7.00;3.75;;;0.80;99.90;;;;;;4973913;28;20027;-70
2021/10/13 02:22:14;;;;;;;9.15;4.07;;;0.80;99.90;;;;;;4973856;28;20034;-70
2021/10/13 02:24:44;;;;;;;7.22;3.90;;;0.80;99.90;;;;;;4973909;28;20078;-70
2021/10/13 02:27:42;;;;;;;6.60;4.25;;;0.80;99.90;;;;;;4975565;28;20085;-70
2021/10/13 02:30:08;;;;;;;10.63;4.97;;;0.80;99.90;;;;;;4977364;28;20031;-70
2021/10/13 02:32:34;;;;;;;6.18;4.38;;;0.80;99.90;;;;;;4992194;28;20035;-70
2021/10/13 02:35:00;;;;;;;7.78;4.97;;;0.80;99.90;;;;;;4977719;28;20034;-70
2021/10/13 02:37:25;;;;;;;8.93;5.20;;;0.90;99.90;;;;;;4977084;28;20054;-70
2021/10/13 02:39:51;;;;;;;7.65;5.47;;;1.00;99.90;;;;;;4977174;28;20031;-70
2021/10/13 02:42:17;;;;;;;11.90;4.90;;;0.90;99.90;;;;;;4977156;28;20023;-70
2021/10/13 02:44:43;;;;;;;10.10;5.35;;;0.90;99.90;;;;;;4977045;28;20033;-70
2021/10/13 02:47:26;;;;;;;17.67;5.85;;;0.90;99.90;;;;;;4977021;28;20101;-70
2021/10/13 02:50:09;;;;;;;9.10;5.10;;;0.90;99.90;;;;;;4977278;28;20035;-70
2021/10/13 02:52:41;;;;;;;8.82;5.22;;;0.90;99.90;;;;;;4977108;28;20414;-70
2021/10/13 02:55:19;;;;;;;11.05;6.03;;;0.90;99.90;;;;;;4977163;28;20038;-70
2021/10/13 02:57:53;;;;;;;10.48;5.20;;;0.90;99.90;;;;;;4976584;28;20058;-70
2021/10/13 03:00:21;;;;;;;12.30;6.65;;;0.90;99.90;;;;;;4977040;28;20505;-70
2021/10/13 03:03:00;;;;;;;11.30;6.70;;;1.00;99.90;;;;;;4991675;28;20027;-70
2021/10/13 03:05:27;;;;;;;16.33;5.97;;;1.00;99.90;;;;;;4976019;28;20033;-70
2021/10/13 03:07:59;;;;;;;9.73;5.75;;;1.00;99.90;;;;;;4976583;28;20082;-70
2021/10/13 03:10:26;;;;;;;7.57;5.47;;;1.00;99.90;;;;;;4976812;28;20038;-70
2021/10/13 03:12:55;;;;;;;7.63;5.82;;;1.10;99.90;;;;;;4991535;28;20035;-70
2021/10/13 03:15:23;;;;;;;8.05;5.70;;;1.10;99.90;;;;;;4976931;28;20027;-70
2021/10/13 03:17:53;;;;;;;9.52;5.93;;;1.10;99.90;;;;;;4976299;28;20042;-70
2021/10/13 03:20:20;;;;;;;7.85;5.32;;;1.10;99.90;;;;;;4976400;28;20431;-70
2021/10/13 03:22:47;;;;;;;9.68;6.20;;;1.10;99.90;;;;;;4976661;28;20022;-70
2021/10/13 03:25:21;;;;;;;12.35;5.32;;;1.10;99.90;;;;;;4976579;28;20375;-70
2021/10/13 03:27:47;;;;;;;7.63;4.68;;;1.10;99.90;;;;;;4976252;28;20085;-70
2021/10/13 03:30:12;;;;;;;9.82;6.05;;;1.10;99.90;;;;;;4976220;28;20093;-70
2021/10/13 03:32:38;;;;;;;8.05;5.07;;;1.10;99.90;;;;;;4976458;28;20478;-70
2021/10/13 03:35:04;;;;;;;6.18;4.63;;;1.10;99.90;;;;;;4976123;28;20372;-70
2021/10/13 03:37:29;;;;;;;9.38;5.40;;;1.10;99.90;;;;;;4975684;28;20165;-70
2021/10/13 03:39:56;;;;;;;9.73;5.32;;;1.10;99.90;;;;;;4976023;28;20118;-70
2021/10/13 03:42:22;;;;;;;9.63;5.43;;;1.10;99.90;;;;;;4976032;28;20034;-70
2021/10/13 03:44:47;;;;;;;6.57;5.32;;;1.20;99.90;;;;;;4975953;28;20031;-70
2021/10/13 03:47:13;;;;;;;8.70;5.97;;;1.30;99.90;;;;;;4976211;28;20027;-70
2021/10/13 03:49:38;;;;;;;8.25;5.10;;;1.40;99.90;;;;;;4990657;28;20081;-70
2021/10/13 03:52:04;;;;;;;9.52;6.05;;;1.50;99.90;;;;;;4975807;28;20026;-70
2021/10/13 03:54:30;;;;;;;7.05;5.00;;;1.70;99.90;;;;;;4975782;28;20027;-70
2021/10/13 03:56:55;;;;;;;7.72;5.32;;;1.70;99.90;;;;;;4975917;28;20023;-70
2021/10/13 03:59:21;;;;;;;15.02;5.22;;;1.90;99.90;;;;;;4974277;28;20515;-70
2021/10/13 04:01:46;;;;;;;8.55;5.63;;;1.90;99.90;;;;;;4975610;28;20442;-70
2021/10/13 04:04:12;;;;;;;8.32;6.20;;;2.00;99.90;;;;;;4975843;28;20390;-70
2021/10/13 04:06:38;;;;;;;12.35;6.47;;;2.10;99.90;;;;;;4976078;28;20359;-70
2021/10/13 04:09:05;;;;;;;9.52;5.25;;;2.20;99.90;;;;;;4975480;28;20029;-70
2021/10/13 04:11:31;;;;;;;9.55;6.57;;;2.30;99.90;;;;;;4975410;28;20534;-70
2021/10/13 04:13:56;;;;;;;8.95;5.72;;;2.40;99.90;;;;;;4975936;28;20031;-70
2021/10/13 04:16:22;;;;;;;10.18;6.72;;;2.40;99.90;;;;;;4975872;28;20030;-70
2021/10/13 04:18:47;;;;;;;6.72;5.30;;;2.40;99.90;;;;;;4975198;28;20035;-70
2021/10/13 04:21:13;;;;;;;7.55;5.25;;;2.40;99.90;;;;;;4975827;28;20023;-70
2021/10/13 04:23:39;;;;;;;8.07;5.13;;;2.40;99.90;;;;;;4975272;28;20493;-70
2021/10/13 04:26:04;;;;;;;7.65;5.65;;;2.40;99.90;;;;;;4975191;28;20082;-70
2021/10/13 04:28:30;;;;;;;11.75;6.57;;;2.30;99.90;;;;;;4975215;28;20057;-70
2021/10/13 04:30:55;;;;;;;11.80;6.20;;;2.20;99.90;;;;;;4973923;28;20422;-70
2021/10/13 04:33:21;;;;;;;10.70;6.35;;;2.20;99.90;;;;;;4975339;28;20039;-70
2021/10/13 04:35:46;;;;;;;11.90;5.60;;;2.10;99.90;;;;;;4975045;28;20027;-70
2021/10/13 04:38:12;;;;;;;8.05;5.72;;;2.10;99.90;;;;;;4974859;28;20035;-70
2021/10/13 04:40:37;;;;;;;10.30;6.80;;;2.00;99.90;;;;;;4974988;28;20526;-70
2021/10/13 04:43:03;;;;;;;17.27;7.80;;;2.00;99.90;;;;;;4975160;28;20022;-70
2021/10/13 04:45:29;;;;;;;13.10;8.68;;;1.90;99.90;;;;;;4975588;28;20026;-70
2021/10/13 04:47:55;;;;;;;15.20;9.50;;;1.90;99.90;;;;;;4974778;28;20117;-70
2021/10/13 04:50:20;;;;;;;19.27;9.10;;;1.90;99.90;;;;;;4974553;28;20026;-70
2021/10/13 04:52:46;;;;;;;19.85;8.23;;;1.80;99.90;;;;;;4974771;28;20023;-70
2021/10/13 04:55:11;;;;;;;10.35;7.43;;;1.70;99.90;;;;;;4989635;28;20022;-70
2021/10/13 04:57:37;;;;;;;11.18;7.28;;;1.70;99.90;;;;;;4974443;28;20065;-70
2021/10/13 05:00:07;;;;;;;11.85;6.50;;;1.60;99.90;;;;;;4989675;28;20113;-70
2021/10/13 05:02:32;;;;;;;8.90;5.68;;;1.50;99.90;;;;;;4974911;28;20045;-70
2021/10/13 05:04:58;;;;;;;7.70;5.43;;;1.50;99.90;;;;;;4974708;28;20023;-70
2021/10/13 05:07:23;;;;;;;7.95;5.18;;;1.40;99.90;;;;;;4974504;28;20065;-70
2021/10/13 05:09:49;;;;;;;10.40;5.43;;;1.30;99.90;;;;;;4974823;28;20055;-70
2021/10/13 05:12:14;;;;;;;12.80;5.03;;;1.30;99.90;;;;;;4974738;28;20065;-70
2021/10/13 05:14:40;;;;;;;9.32;4.72;;;1.30;99.90;;;;;;4975044;28;20030;-70
2021/10/13 05:17:05;;;;;;;10.32;4.75;;;1.20;99.90;;;;;;4974401;28;20378;-70
2021/10/13 05:19:31;;;;;;;7.68;5.45;;;1.20;99.90;;;;;;4989310;28;20027;-70
2021/10/13 05:21:57;;;;;;;14.07;6.20;;;1.10;99.90;;;;;;4974406;28;20026;-70
2021/10/13 05:24:22;;;;;;;9.88;5.13;;;1.10;99.90;;;;;;4974381;28;20023;-70
2021/10/13 05:26:48;;;;;;;9.80;5.72;;;1.10;99.90;;;;;;4974385;28;20496;-70
2021/10/13 05:29:13;;;;;;;8.25;5.28;;;1.10;99.90;;;;;;4974235;28;20023;-70
2021/10/13 05:31:39;;;;;;;8.85;5.30;;;1.10;99.90;;;;;;4974197;28;20514;-70
2021/10/13 05:34:04;;;;;;;12.77;5.78;;;1.10;99.90;;;;;;4974568;28;20380;-70
2021/10/13 05:36:30;;;;;;;7.70;5.13;;;1.10;99.90;;;;;;4989222;28;20073;-70
2021/10/13 05:38:57;;;;;;;9.35;5.60;;;1.10;99.90;;;;;;4972852;28;20035;-70
2021/10/13 05:41:22;;;;;;;6.45;4.88;;;1.10;99.90;;;;;;4974215;28;20019;-70
2021/10/13 05:43:49;;;;;;;6.53;5.20;;;1.20;99.90;;;;;;4972991;28;20027;-70
2021/10/13 05:46:14;;;;;;;9.13;5.40;;;1.20;99.90;;;;;;4974442;28;20102;-70
2021/10/13 05:48:40;;;;;;;9.52;5.57;;;1.30;99.90;;;;;;4974171;28;20142;-70
2021/10/13 05:51:05;;;;;;;8.35;5.30;;;1.40;99.90;;;;;;4974664;28;20031;-70
2021/10/13 05:53:32;;;;;;;8.57;5.65;;;1.40;99.90;;;;;;4989093;28;20034;-70
2021/10/13 05:55:57;;;;;;;11.52;6.38;;;1.40;99.90;;;;;;4974088;28;20093;-70
2021/10/13 05:58:24;;;;;;;8.05;5.70;;;1.50;99.90;;;;;;5058818;23;20498;-71
2021/10/13 06:00:52;;;;;;;10.68;6.15;;;1.60;99.90;;;;;;4974358;28;20047;-71
2021/10/13 06:03:18;;;;;;;10.35;5.60;;;1.60;99.90;;;;;;4977660;28;20023;-71
2021/10/13 06:05:43;;;;;;;10.43;6.25;;;1.80;99.90;;;;;;4977821;28;20488;-71
2021/10/13 06:08:09;;;;;;;12.52;7.15;;;1.90;99.90;;;;;;4977718;28;20039;-71
2021/10/13 06:10:35;;;;;;;14.60;9.40;;;2.10;99.90;;;;;;4978056;28;20033;-70
2021/10/13 06:13:00;;;;;;;17.08;8.65;;;2.40;99.90;;;;;;4977702;28;20109;-70
2021/10/13 06:15:34;;;;;;;17.73;8.35;;;2.60;99.90;;;;;;4977647;28;20490;-70
2021/10/13 06:18:00;;;;;;;;;;;2.90;99.90;;;;;;4977944;28;20027;-70
2021/10/13 06:20:25;;;;;;;23.00;6.63;;;3.10;99.90;;;;;;4976334;28;19914;-70
2021/10/13 06:22:53;;;;;;;14.77;6.55;;;3.40;99.90;;;;;;4977768;28;20022;-70
2021/10/13 06:25:19;;;;;;;17.05;6.75;;;3.50;99.90;;;;;;4977465;28;20022;-70
2021/10/13 06:27:45;;;;;;;13.93;6.15;;;3.60;99.90;;;;;;4977379;28;20157;-70
2021/10/13 06:30:10;;;;;;;14.40;7.30;;;3.60;99.90;;;;;;4977613;28;20027;-70
2021/10/13 06:32:36;;;;;;;13.85;6.13;;;3.60;99.90;;;;;;4977618;28;20110;-70
2021/10/13 06:35:02;;;;;;;15.48;6.18;;;3.60;99.90;;;;;;4977456;28;20077;-70
2021/10/13 06:37:27;;;;;;;11.95;6.60;;;3.80;99.90;;;;;;4977102;28;20528;-70
2021/10/13 06:39:53;;;;;;;12.90;6.57;;;4.00;99.90;;;;;;4977124;28;20019;-70
2021/10/13 06:42:18;;;;;;;9.60;6.47;;;4.20;99.90;;;;;;4977388;28;20030;-70
2021/10/13 06:44:44;;;;;;;13.10;7.07;;;4.30;99.90;;;;;;4977106;28;20035;-70
2021/10/13 06:47:09;;;;;;;19.65;6.25;;;4.40;99.90;;;;;;4977337;28;20026;-70
2021/10/13 06:49:35;;;;;;;15.00;6.28;;;4.50;99.90;;;;;;4976972;28;20039;-71
2021/10/13 06:52:00;;;;;;;15.13;5.68;;;4.50;99.90;;;;;;4977004;28;20031;-70
2021/10/13 06:54:26;;;;;;;17.17;7.13;;;4.50;99.90;;;;;;4977066;28;20398;-71
2021/10/13 06:56:52;;;;;;;15.23;8.00;;;4.60;99.90;;;;;;4977124;28;20086;-70
2021/10/13 06:59:17;;;;;;;13.85;6.60;;;4.70;99.90;;;;;;4976623;28;20035;-71
2021/10/13 07:01:43;;;;;;;16.58;7.63;;;4.70;99.90;;;;;;4991732;28;20026;-70
2021/10/13 07:04:08;;;;;;;21.02;8.32;;;4.80;99.90;;;;;;4975488;28;20029;-71
2021/10/13 07:06:34;;;;;;;15.48;6.90;;;4.90;99.90;;;;;;4977371;28;20023;-71
2021/10/13 07:08:59;;;;;;;18.00;7.22;;;5.00;99.90;;;;;;4976765;28;20027;-70
2021/10/13 07:11:25;;;;;;;19.92;7.30;;;5.20;99.90;;;;;;4977234;28;20031;-71
2021/10/13 07:13:50;;;;;;;18.73;7.20;;;5.30;99.90;;;;;;4976700;28;20030;-71
2021/10/13 07:16:16;;;;;;;10.10;6.63;;;5.40;99.90;;;;;;4976577;28;20039;-71
2021/10/13 07:18:41;;;;;;;14.50;6.72;;;5.50;99.90;;;;;;4976555;28;20054;-71
2021/10/13 07:21:07;;;;;;;16.23;6.88;;;5.70;99.90;;;;;;4977030;28;20019;-71
2021/10/13 07:23:33;;;;;;;21.55;7.78;;;5.80;99.90;;;;;;4977444;28;20344;-71
2021/10/13 07:25:58;;;;;;;20.35;8.23;;;5.90;99.90;;;;;;4977759;28;20034;-71
2021/10/13 07:28:26;;;;;;;18.10;6.75;;;5.90;99.90;;;;;;4976353;28;20034;-71
2021/10/13 07:30:52;;;;;;;19.58;6.55;;;5.90;99.90;;;;;;4975175;28;20117;-71
2021/10/13 07:33:17;;;;;;;12.95;6.40;;;5.90;99.90;;;;;;4976826;28;20058;-71
2021/10/13 07:35:43;;;;;;;21.15;6.30;;;5.80;99.90;;;;;;4976462;28;20037;-71
2021/10/13 07:38:15;;;;;;;22.05;8.57;;;5.90;99.90;;;;;;4975984;28;20035;-71
2021/10/13 07:40:41;;;;;;;16.27;7.32;;;6.20;99.90;;;;;;4976351;28;20029;-71
2021/10/13 07:43:07;;;;;;;22.10;7.30;;;6.60;99.90;;;;;;4976035;28;20027;-71
2021/10/13 07:45:33;;;;;;;20.85;7.28;;;7.00;99.90;;;;;;4976033;28;20063;-71
2021/10/13 07:47:59;;;;;;;21.80;6.03;;;7.30;99.90;;;;;;4975939;28;20054;-71
2021/10/13 07:50:25;;;;;;;24.02;6.18;;;7.30;99.90;;;;;;4975893;28;20030;-71
2021/10/13 07:52:51;;;;;;;16.25;5.32;;;7.20;99.90;;;;;;4976419;28;20502;-71
2021/10/13 07:55:16;;;;;;;28.67;5.63;;;7.20;99.90;;;;;;4975804;28;20026;-71
2021/10/13 07:57:42;;;;;;;19.48;4.90;;;7.30;99.90;;;;;;4975872;28;20126;-71
2021/10/13 08:00:08;;;;;;;22.58;4.80;;;7.40;99.90;;;;;;4975691;28;20037;-71
2021/10/13 08:02:34;;;;;;;27.10;5.22;;;7.70;99.90;;;;;;4975710;28;20486;-71
2021/10/13 08:04:59;;;;;;;27.27;5.00;;;8.00;99.90;;;;;;4975655;28;20027;-71
2021/10/13 08:07:25;;;;;;;24.10;5.40;;;8.20;99.90;;;;;;4975598;28;20109;-71
2021/10/13 08:09:50;;;;;;;23.85;5.45;;;8.40;99.90;;;;;;4990451;28;20371;-71
2021/10/13 08:12:16;;;;;;;21.05;4.47;;;8.60;99.90;;;;;;4975776;28;20538;-71
2021/10/13 08:14:42;;;;;;;16.40;3.88;;;8.80;99.90;;;;;;4975447;28;20074;-71
2021/10/13 08:17:09;;;;;;;14.85;3.17;;;8.90;99.90;;;;;;4975879;28;20069;-71
2021/10/13 08:19:35;;;;;;;18.40;3.47;;;8.90;99.90;;;;;;4975318;28;20026;-71
2021/10/13 08:22:01;;;;;;;30.98;3.90;;;8.80;99.90;;;;;;4975313;28;20390;-71
2021/10/13 08:24:27;;;;;;;10.65;3.75;;;9.00;99.90;;;;;;4974662;28;20054;-71
2021/10/13 08:26:53;;;;;;;21.38;3.72;;;8.90;99.90;;;;;;4975226;28;20030;-71
2021/10/13 08:29:19;;;;;;;19.88;4.85;;;8.90;99.90;;;;;;4973907;28;20026;-71
2021/10/13 08:31:44;;;;;;;32.55;3.50;;;8.90;99.90;;;;;;4975139;28;20019;-71
2021/10/13 08:34:10;;;;;;;10.40;3.40;;;9.00;99.90;;;;;;4975129;28;20097;-71
2021/10/13 08:36:35;;;;;;;15.07;3.83;;;9.00;99.90;;;;;;4975353;28;20019;-71
2021/10/13 08:39:01;;;;;;;23.65;4.15;;;8.90;99.90;;;;;;4975106;28;20398;-71
2021/10/13 08:41:26;;;;;;;26.42;3.10;;;8.90;99.90;;;;;;4974978;28;20077;-71
2021/10/13 08:43:53;;;;;;;20.98;3.38;;;8.90;99.90;;;;;;4974957;28;20394;-71
2021/10/13 08:46:19;;;;;;;17.45;3.42;;;9.10;99.90;;;;;;4974934;28;20537;-71
2021/10/13 08:48:45;;;;;;;11.57;2.60;;;9.30;99.90;;;;;;4974782;28;20026;-71
2021/10/13 08:51:10;;;;;;;18.17;3.38;;;9.50;99.90;;;;;;4974827;28;20368;-71
2021/10/13 08:53:36;;;;;;;19.40;3.55;;;9.90;99.90;;;;;;4974835;28;20085;-71
2021/10/13 08:56:02;;;;;;;15.43;3.25;;;10.10;99.90;;;;;;4974766;28;20023;-71
2021/10/13 08:58:29;;;;;;;14.48;2.40;;;10.30;99.90;;;;;;4974586;28;20035;-71
2021/10/13 09:01:04;;;;;;;15.18;2.22;;;10.30;99.90;;;;;;4973498;28;20049;-71
2021/10/13 09:03:35;;;;;;;11.88;3.05;;;10.20;99.90;;;;;;4976009;28;20417;-71
2021/10/13 09:06:24;;;;;;;20.75;2.65;;;10.10;99.90;;;;;;4974635;28;20519;-71
2021/10/13 09:09:10;;;;;;;13.68;2.65;;;10.10;99.90;;;;;;4989498;28;20034;-71
2021/10/13 09:11:47;;;;;;;11.93;2.42;;;10.10;99.90;;;;;;4974929;28;20031;-71
2021/10/13 09:14:20;;;;;;;11.15;2.45;;;10.50;99.90;;;;;;4973309;28;20034;-71
2021/10/13 09:16:51;;;;;;;14.13;2.67;;;10.90;99.90;;;;;;4974828;28;20081;-71
2021/10/13 09:19:18;;;;;;;11.73;2.35;;;11.20;99.90;;;;;;4974502;28;20312;-71
2021/10/13 09:22:02;;;;;;;17.13;3.60;;;11.30;99.90;;;;;;4974446;28;20027;-71
2021/10/13 09:24:29;;;;;;;8.75;2.00;;;11.40;99.90;;;;;;4974497;28;20023;-71
2021/10/13 09:26:57;;;;;;;17.42;2.10;;;11.50;99.90;;;;;;4974418;28;20423;-71
2021/10/13 09:29:24;;;;;;;11.25;2.55;;;11.60;99.90;;;;;;4974347;28;20023;-71
2021/10/13 09:31:57;;;;;;;5.78;1.65;;;11.70;99.90;;;;;;4973104;28;20482;-71
2021/10/13 09:34:23;;;;;;;11.57;2.33;;;11.80;99.90;;;;;;4974888;28;20049;-71
2021/10/13 09:36:58;;;;;;;11.57;1.65;;;11.90;99.90;;;;;;4977229;28;20486;-71
2021/10/13 09:39:24;;;;;;;13.30;2.45;;;12.00;99.90;;;;;;4978375;28;20478;-71
2021/10/13 09:42:16;;;;;;;10.00;1.65;;;11.80;99.90;;;;;;4978242;28;20034;-72
2021/10/13 09:44:54;;;;;;;6.63;1.60;;;11.80;99.90;;;;;;4977323;28;20487;-72
2021/10/13 09:47:35;;;;;;;10.32;2.10;;;11.90;99.90;;;;;;4993156;28;20509;-71
2021/10/13 09:50:06;;;;;;;16.75;2.38;;;12.00;99.90;;;;;;4979088;28;20507;-71
2021/10/13 09:52:31;;;;;;;9.30;2.42;;;12.20;99.90;;;;;;4978457;28;20044;-71
2021/10/13 09:55:02;;;;;;;10.07;2.08;;;12.20;99.90;;;;;;4978088;28;20035;-72
2021/10/13 09:57:30;;;;;;;11.15;1.63;;;12.30;99.90;;;;;;4977989;28;20023;-71
2021/10/13 09:59:56;;;;;;;7.68;1.50;;;12.50;99.90;;;;;;4977765;28;20379;-72
2021/10/13 10:02:24;;;;;;;7.60;2.05;;;12.70;99.90;;;;;;4977958;28;20023;-72
2021/10/13 10:04:51;;;;;;;10.05;2.05;;;12.90;99.90;;;;;;4978113;28;20034;-72
2021/10/13 10:07:19;;;;;;;9.50;1.83;;;12.80;99.90;;;;;;4977823;28;20035;-72
2021/10/13 10:10:10;;;;;;;12.63;1.67;;;12.80;99.90;;;;;;4992704;28;20398;-72
2021/10/13 10:13:01;;;;;;;11.90;1.77;;;12.90;99.90;;;;;;4978049;28;20026;-72
2021/10/13 10:15:34;;;;;;;13.80;1.98;;;13.00;99.90;;;;;;4971766;28;20117;-72
2021/10/13 10:18:01;;;;;;;13.17;3.10;;;13.00;99.90;;;;;;4977492;28;20097;-72
2021/10/13 10:20:39;;;;;;;17.42;2.78;;;13.20;99.90;;;;;;4977638;28;20015;-72
2021/10/13 10:23:28;;;;;;;10.00;1.75;;;13.20;99.90;;;;;;4977548;28;20065;-72
2021/10/13 10:26:17;;;;;;;19.00;3.13;;;13.20;99.90;;;;;;4977482;28;20023;-71
2021/10/13 10:28:52;;;;;;;10.48;2.55;;;13.10;99.90;;;;;;4977211;28;20482;-72
2021/10/13 10:31:27;;;;;;;20.65;2.38;;;13.00;99.90;;;;;;4976164;28;20041;-72
2021/10/13 10:34:05;;;;;;;15.48;2.30;;;12.80;99.90;;;;;;4977617;28;20027;-72
2021/10/13 10:36:33;;;;;;;7.28;1.48;;;12.50;99.90;;;;;;4977264;28;20494;-72
2021/10/13 10:38:59;;;;;;;9.93;2.03;;;12.50;99.90;;;;;;4977247;28;20038;-72
2021/10/13 10:41:46;;;;;;;5.40;1.90;;;12.40;99.90;;;;;;4977251;28;20018;-72
2021/10/13 10:44:27;;;;;;;21.80;3.17;;;12.50;99.90;;;;;;4977390;28;20023;-72
2021/10/13 10:47:03;;;;;;;22.15;2.45;;;12.50;99.90;;;;;;4976443;28;20521;-72
2021/10/13 10:49:45;;;;;;;15.35;2.17;;;12.60;99.90;;;;;;4976972;28;20073;-72
2021/10/13 10:52:15;;;;;;;10.35;1.85;;;12.70;99.90;;;;;;4976982;28;20019;-72
2021/10/13 10:55:06;;;;;;;11.63;2.40;;;12.90;99.90;;;;;;4977001;28;20083;-72
2021/10/13 10:57:44;;;;;;;7.80;1.27;;;13.20;99.90;;;;;;4976881;28;20114;-72
2021/10/13 11:00:36;;;;;;;10.48;1.30;;;13.50;99.90;;;;;;4976789;28;20043;-72
2021/10/13 11:03:22;;;;;;;7.30;1.63;;;13.60;99.90;;;;;;4977395;28;20510;-72
2021/10/13 11:05:48;;;;;;;6.22;1.23;;;13.70;99.90;;;;;;4976989;28;20033;-72
2021/10/13 11:08:15;;;;;;;5.85;1.15;;;13.80;99.90;;;;;;4976887;28;20398;-72
2021/10/13 11:10:42;;;;;;;11.18;1.80;;;13.60;99.90;;;;;;4976706;28;20031;-72
2021/10/13 11:13:08;;;;;;;5.55;1.30;;;13.60;99.90;;;;;;4976915;28;20059;-72
2021/10/13 11:15:36;;;;;;;10.02;1.83;;;13.70;99.90;;;;;;4976596;28;20442;-72
2021/10/13 11:18:18;;;;;;;10.63;2.13;;;13.70;99.90;;;;;;4976388;28;20027;-72
2021/10/13 11:20:44;;;;;;;6.88;1.60;;;13.60;99.90;;;;;;4976776;28;20423;-72
2021/10/13 11:23:11;;;;;;;7.85;1.77;;;13.50;99.90;;;;;;4976989;28;20023;-72
2021/10/13 11:25:38;;;;;;;10.73;2.10;;;13.40;99.90;;;;;;4976439;28;20026;-72
2021/10/13 11:28:14;;;;;;;3.88;1.02;;;13.30;99.90;;;;;;4976311;28;20027;-72
2021/10/13 11:30:49;;;;;;;12.80;2.45;;;13.20;99.90;;;;;;4976629;28;20030;-72
2021/10/13 11:33:20;;;;;;;8.48;1.90;;;13.00;99.90;;;;;;4976533;28;20159;-72
2021/10/13 11:35:48;;;;;;;9.18;2.08;;;13.00;99.90;;;;;;4991106;28;20378;-72
2021/10/13 11:38:19;;;;;;;17.30;1.42;;;12.90;99.90;;;;;;4976117;28;20458;-72
2021/10/13 11:40:45;;;;;;;14.95;1.42;;;12.80;99.90;;;;;;4976429;28;20027;-72
2021/10/13 11:43:17;;;;;;;21.55;2.13;;;12.80;99.90;;;;;;4976342;28;20496;-72
2021/10/13 11:45:53;;;;;;;7.57;2.03;;;12.70;99.90;;;;;;4974851;28;20501;-72
2021/10/13 11:48:23;;;;;;;15.88;1.58;;;12.70;99.90;;;;;;4976635;28;20045;-72
2021/10/13 11:50:49;;;;;;;9.18;1.83;;;12.30;99.90;;;;;;4976199;28;20034;-71
2021/10/13 11:53:15;;;;;;;10.25;2.08;;;11.90;99.90;;;;;;4975896;28;20026;-71
2021/10/13 11:55:40;;;;;;;7.82;1.48;;;11.60;99.90;;;;;;4975884;28;20026;-71
2021/10/13 11:58:06;;;;;;;12.07;1.90;;;11.50;99.90;;;;;;4998867;23;20043;-70
2021/10/13 12:00:44;;;;;;;10.32;1.52;;;11.60;99.90;;;;;;4956659;29;20031;-71
2021/10/13 12:03:11;;;;;;;11.27;1.35;;;11.90;99.90;;;;;;4971258;28;20023;-71
2021/10/13 12:05:50;;;;;;;7.93;1.40;;;12.30;99.90;;;;;;4956357;28;20034;-71
2021/10/13 12:08:26;;;;;;;7.60;1.83;;;12.60;99.90;;;;;;4956286;28;20019;-70
2021/10/13 12:11:03;;;;;;;5.78;1.27;;;13.10;99.90;;;;;;4956592;28;20027;-71
2021/10/13 12:13:30;;;;;;;10.05;1.50;;;13.80;99.90;;;;;;4956563;28;20031;-71
2021/10/13 12:16:09;;;;;;;7.38;1.58;;;14.50;99.90;;;;;;4956477;28;20082;-71
2021/10/13 12:18:46;;;;;;;6.80;1.25;;;14.60;99.90;;;;;;4956070;28;20040;-71
2021/10/13 12:21:23;;;;;;;7.65;1.95;;;14.50;99.90;;;;;;4956313;28;20016;-71
2021/10/13 12:23:59;;;;;;;6.45;1.25;;;14.30;99.90;;;;;;4956371;28;20102;-71
2021/10/13 12:26:27;;;;;;;6.28;1.40;;;14.10;99.90;;;;;;4956364;28;20102;-71
2021/10/13 12:28:55;;;;;;;7.97;1.33;;;14.00;99.90;;;;;;4955866;28;20027;-71
2021/10/13 12:31:24;;;;;;;12.63;1.80;;;14.00;99.90;;;;;;4956146;28;20082;-71
2021/10/13 12:34:14;;;;;;;12.98;1.85;;;14.00;99.90;;;;;;4955862;28;20035;-71
2021/10/13 12:36:43;;;;;;;6.18;1.42;;;13.80;99.90;;;;;;4956149;28;20426;-71
2021/10/13 12:39:15;;;;;;;6.93;1.58;;;13.50;99.90;;;;;;4955647;28;20027;-71
2021/10/13 12:41:48;;;;;;;19.95;2.20;;;13.30;99.90;;;;;;4955715;28;20028;-71
2021/10/13 12:44:14;;;;;;;5.65;1.67;;;13.10;99.90;;;;;;4955940;28;20487;-71
2021/10/13 12:46:40;;;;;;;5.40;2.03;;;13.00;99.90;;;;;;4955769;29;20098;-71
2021/10/13 12:49:15;;;;;;;12.68;1.98;;;12.80;99.90;;;;;;4955510;28;20188;-71
2021/10/13 12:52:09;;;;;;;13.90;1.92;;;12.70;99.90;;;;;;4955847;28;20102;-71
2021/10/13 12:54:45;;;;;;;8.15;1.95;;;12.60;99.90;;;;;;4954194;29;20090;-71
2021/10/13 12:57:18;;;;;;;7.80;2.25;;;12.50;99.90;;;;;;4954424;29;20418;-71
2021/10/13 12:59:45;;;;;;;10.13;3.03;;;12.60;99.90;;;;;;4955255;28;20046;-71